createdAt,value
2023-06-11T00:00:28.371Z,95637.00
2023-06-11T00:01:28.779Z,95635.00
2023-06-11T00:02:28.587Z,95634.00
2023-06-11T00:03:28.703Z,95634.00
2023-06-11T00:04:28.564Z,95634.00
2023-06-11T00:05:28.597Z,95630.00
2023-06-11T00:06:27.716Z,95635.00
2023-06-11T00:07:27.711Z,95634.00
2023-06-11T00:08:27.781Z,95635.00
2023-06-11T00:09:27.790Z,95632.00
2023-06-11T00:10:28.823Z,95632.00
2023-06-11T00:11:27.911Z,95632.00
2023-06-11T00:12:28.899Z,95634.00
2023-06-11T00:13:28.955Z,95634.00
2023-06-11T00:14:28.025Z,95634.00
2023-06-11T00:15:29.051Z,95637.00
2023-06-11T00:16:29.164Z,95635.00
2023-06-11T00:17:28.148Z,95635.00
2023-06-11T00:18:28.169Z,95639.00
2023-06-11T00:19:29.232Z,95639.00
2023-06-11T00:20:29.292Z,95637.00
2023-06-11T00:21:29.324Z,95637.00
2023-06-11T00:22:29.378Z,95641.00
2023-06-11T00:23:29.408Z,95637.00
2023-06-11T00:24:29.477Z,95639.00
2023-06-11T00:25:29.497Z,95639.00
2023-06-11T00:26:28.529Z,95637.00
2023-06-11T00:27:29.579Z,95634.00
2023-06-11T00:28:29.616Z,95637.00
2023-06-11T00:29:29.698Z,95639.00
2023-06-11T00:30:28.754Z,95634.00
2023-06-11T00:31:29.830Z,95635.00
2023-06-11T00:32:29.792Z,95634.00
2023-06-11T00:33:28.883Z,95637.00
2023-06-11T00:34:28.915Z,95632.00
2023-06-11T00:35:29.972Z,95628.00
2023-06-11T00:36:30.017Z,95632.00
2023-06-11T00:37:30.052Z,95634.00
2023-06-11T00:38:30.178Z,95632.00
2023-06-11T00:39:29.154Z,95634.00
2023-06-11T00:40:30.197Z,95635.00
2023-06-11T00:41:30.241Z,95635.00
2023-06-11T00:42:30.321Z,95637.00
2023-06-11T00:43:30.305Z,95639.00
2023-06-11T00:44:30.341Z,95639.00
2023-06-11T00:45:29.497Z,95643.00
2023-06-11T00:46:30.492Z,95639.00
2023-06-11T00:47:30.498Z,95641.00
2023-06-11T00:48:29.511Z,95645.00
2023-06-11T00:49:30.602Z,95645.00
2023-06-11T00:50:30.626Z,95649.00
2023-06-11T00:51:30.656Z,95647.00
2023-06-11T00:52:30.764Z,95649.00
2023-06-11T00:53:30.765Z,95657.00
2023-06-11T00:54:30.793Z,95657.00
2023-06-11T00:55:30.845Z,95659.00
2023-06-11T00:56:30.916Z,95661.00
2023-06-11T00:57:30.924Z,95661.00
2023-06-11T00:58:31.182Z,95663.00
2023-06-11T00:59:30.062Z,95661.00
2023-06-11T01:00:31.085Z,95661.00
2023-06-11T01:01:31.178Z,95663.00
2023-06-11T01:02:31.183Z,95665.00
2023-06-11T01:03:31.197Z,95667.00
2023-06-11T01:04:31.318Z,95667.00
2023-06-11T01:05:30.350Z,95669.00
2023-06-11T01:06:31.363Z,95669.00
2023-06-11T01:07:30.374Z,95669.00
2023-06-11T01:08:31.503Z,95669.00
2023-06-11T01:09:31.480Z,95671.00
2023-06-11T01:10:31.503Z,95671.00
2023-06-11T01:11:31.592Z,95671.00
2023-06-11T01:12:31.623Z,95673.00
2023-06-11T01:13:31.633Z,95675.00
2023-06-11T01:14:31.726Z,95679.00
2023-06-11T01:15:31.802Z,95677.00
2023-06-11T01:16:31.807Z,95681.00
2023-06-11T01:17:31.825Z,95679.00
2023-06-11T01:18:31.861Z,95679.00
2023-06-11T01:19:31.900Z,95679.00
2023-06-11T01:20:31.980Z,95677.00
2023-06-11T01:21:32.027Z,95679.00
2023-06-11T01:22:32.051Z,95679.00
2023-06-11T01:23:32.091Z,95679.00
2023-06-11T01:24:32.194Z,95679.00
2023-06-11T01:25:32.180Z,95679.00
2023-06-11T01:26:32.222Z,95679.00
2023-06-11T01:27:32.300Z,95683.00
2023-06-11T01:28:32.416Z,95683.00
2023-06-11T01:29:32.353Z,95683.00
2023-06-11T01:30:32.437Z,95683.00
2023-06-11T01:31:32.486Z,95683.00
2023-06-11T01:32:32.535Z,95683.00
2023-06-11T01:33:31.538Z,95685.00
2023-06-11T01:34:32.619Z,95685.00
2023-06-11T01:35:31.675Z,95683.00
2023-06-11T01:36:31.663Z,95683.00
2023-06-11T01:37:32.704Z,95679.00
2023-06-11T01:38:32.745Z,95683.00
2023-06-11T01:39:32.799Z,95679.00
2023-06-11T01:40:32.869Z,95679.00
2023-06-11T01:41:33.819Z,95679.00
2023-06-11T01:42:32.943Z,95681.00
2023-06-11T01:43:31.991Z,95681.00
2023-06-11T01:44:32.019Z,95679.00
2023-06-11T01:45:33.091Z,95677.00
2023-06-11T01:46:33.171Z,95677.00
2023-06-11T01:47:33.141Z,95677.00
2023-06-11T01:48:32.145Z,95677.00
2023-06-11T01:49:33.183Z,95677.00
2023-06-11T01:50:33.296Z,95677.00
2023-06-11T01:51:33.255Z,95677.00
2023-06-11T01:52:33.324Z,95675.00
2023-06-11T01:53:33.371Z,95675.00
2023-06-11T01:54:33.468Z,95675.00
2023-06-11T01:55:33.455Z,95677.00
2023-06-11T01:56:33.495Z,95677.00
2023-06-11T01:57:33.541Z,95677.00
2023-06-11T01:58:33.602Z,95675.00
2023-06-11T01:59:32.676Z,95675.00
2023-06-11T02:00:33.731Z,95677.00
2023-06-11T02:01:32.767Z,95679.00
2023-06-11T02:02:33.810Z,95677.00
2023-06-11T02:03:32.931Z,95679.00
2023-06-11T02:04:33.929Z,95683.00
2023-06-11T02:05:32.924Z,95683.00
2023-06-11T02:06:33.958Z,95681.00
2023-06-11T02:07:34.006Z,95687.00
2023-06-11T02:08:34.050Z,95687.00
2023-06-11T02:09:34.072Z,95685.00
2023-06-11T02:10:34.140Z,95685.00
2023-06-11T02:11:34.163Z,95687.00
2023-06-11T02:12:34.277Z,95687.00
2023-06-11T02:13:34.285Z,95688.00
2023-06-11T02:14:34.313Z,95690.00
2023-06-11T02:15:34.389Z,95690.00
2023-06-11T02:16:34.498Z,95692.00
2023-06-11T02:17:34.577Z,95694.00
2023-06-11T02:18:33.482Z,95694.00
2023-06-11T02:19:34.554Z,95694.00
2023-06-11T02:20:34.571Z,95698.00
2023-06-11T02:21:34.602Z,95698.00
2023-06-11T02:22:34.658Z,95702.00
2023-06-11T02:23:34.681Z,95700.00
2023-06-11T02:24:34.736Z,95702.00
2023-06-11T02:25:34.770Z,95704.00
2023-06-11T02:26:33.835Z,95702.00
2023-06-11T02:27:34.906Z,95706.00
2023-06-11T02:28:33.934Z,95706.00
2023-06-11T02:29:34.981Z,95708.00
2023-06-11T02:30:35.042Z,95706.00
2023-06-11T02:31:35.131Z,95706.00
2023-06-11T02:32:35.131Z,95704.00
2023-06-11T02:33:35.135Z,95704.00
2023-06-11T02:34:34.172Z,95704.00
2023-06-11T02:35:35.240Z,95706.00
2023-06-11T02:36:35.283Z,95704.00
2023-06-11T02:37:35.335Z,95702.00
2023-06-11T02:38:35.364Z,95708.00
2023-06-11T02:39:35.416Z,95704.00
2023-06-11T02:40:34.451Z,95702.00
2023-06-11T02:41:35.503Z,95704.00
2023-06-11T02:42:35.520Z,95704.00
2023-06-11T02:43:34.598Z,95704.00
2023-06-11T02:44:35.617Z,95702.00
2023-06-11T02:45:35.683Z,95702.00
2023-06-11T02:46:35.731Z,95704.00
2023-06-11T02:47:35.828Z,95702.00
2023-06-11T02:48:35.827Z,95704.00
2023-06-11T02:49:35.853Z,95702.00
2023-06-11T02:50:35.923Z,95702.00
2023-06-11T02:51:35.956Z,95700.00
2023-06-11T02:52:34.980Z,95702.00
2023-06-11T02:53:36.025Z,95702.00
2023-06-11T02:54:36.093Z,95700.00
2023-06-11T02:55:36.185Z,95700.00
2023-06-11T02:56:35.174Z,95702.00
2023-06-11T02:57:35.213Z,95702.00
2023-06-11T02:58:36.295Z,95704.00
2023-06-11T02:59:36.316Z,95706.00
2023-06-11T03:00:36.375Z,95706.00
2023-06-11T03:01:36.496Z,95704.00
2023-06-11T03:02:36.458Z,95702.00
2023-06-11T03:03:36.515Z,95700.00
2023-06-11T03:04:36.580Z,95704.00
2023-06-11T03:05:35.571Z,95704.00
2023-06-11T03:06:36.595Z,95704.00
2023-06-11T03:07:36.726Z,95704.00
2023-06-11T03:08:36.704Z,95708.00
2023-06-11T03:09:35.755Z,95708.00
2023-06-11T03:10:36.845Z,95710.00
2023-06-11T03:11:36.819Z,95712.00
2023-06-11T03:12:36.853Z,95710.00
2023-06-11T03:13:35.874Z,95712.00
2023-06-11T03:14:36.945Z,95712.00
2023-06-11T03:15:36.990Z,95712.00
2023-06-11T03:16:37.098Z,95714.00
2023-06-11T03:17:36.062Z,95710.00
2023-06-11T03:18:36.113Z,95710.00
2023-06-11T03:19:37.150Z,95710.00
2023-06-11T03:20:36.197Z,95710.00
2023-06-11T03:21:37.208Z,95712.00
2023-06-11T03:22:37.260Z,95712.00
2023-06-11T03:23:37.318Z,95714.00
2023-06-11T03:24:36.368Z,95714.00
2023-06-11T03:25:37.365Z,95714.00
2023-06-11T03:26:37.515Z,95714.00
2023-06-11T03:27:36.445Z,95716.00
2023-06-11T03:28:37.479Z,95712.00
2023-06-11T03:29:36.608Z,95714.00
2023-06-11T03:30:37.593Z,95714.00
2023-06-11T03:31:37.628Z,95714.00
2023-06-11T03:32:37.721Z,95716.00
2023-06-11T03:33:36.668Z,95712.00
2023-06-11T03:34:37.702Z,95714.00
2023-06-11T03:35:37.767Z,95716.00
2023-06-11T03:36:36.829Z,95718.00
2023-06-11T03:37:36.860Z,95718.00
2023-06-11T03:38:37.894Z,95716.00
2023-06-11T03:39:37.967Z,95714.00
2023-06-11T03:40:36.983Z,95714.00
2023-06-11T03:41:37.989Z,95712.00
2023-06-11T03:42:38.067Z,95712.00
2023-06-11T03:43:37.127Z,95714.00
2023-06-11T03:44:37.150Z,95716.00
2023-06-11T03:45:37.136Z,95716.00
2023-06-11T03:46:37.237Z,95718.00
2023-06-11T03:47:38.271Z,95718.00
2023-06-11T03:48:38.229Z,95716.00
2023-06-11T03:49:38.325Z,95718.00
2023-06-11T03:50:37.299Z,95722.00
2023-06-11T03:51:38.315Z,95720.00
2023-06-11T03:52:38.395Z,95718.00
2023-06-11T03:53:38.412Z,95720.00
2023-06-11T03:54:38.438Z,95724.00
2023-06-11T03:55:38.487Z,95724.00
2023-06-11T03:56:37.482Z,95720.00
2023-06-11T03:57:38.521Z,95720.00
2023-06-11T03:58:38.549Z,95720.00
2023-06-11T03:59:37.676Z,95720.00
2023-06-11T04:00:38.590Z,95720.00
2023-06-11T04:01:38.617Z,95720.00
2023-06-11T04:02:38.850Z,95720.00
2023-06-11T04:03:38.718Z,95720.00
2023-06-11T04:04:37.767Z,95720.00
2023-06-11T04:05:38.756Z,95724.00
2023-06-11T04:06:38.796Z,95722.00
2023-06-11T04:07:39.169Z,95722.00
2023-06-11T04:08:38.886Z,95724.00
2023-06-11T04:09:38.958Z,95722.00
2023-06-11T04:10:38.990Z,95720.00
2023-06-11T04:11:38.959Z,95722.00
2023-06-11T04:12:37.991Z,95720.00
2023-06-11T04:13:39.059Z,95720.00
2023-06-11T04:14:38.063Z,95724.00
2023-06-11T04:15:39.098Z,95724.00
2023-06-11T04:16:39.181Z,95726.00
2023-06-11T04:17:39.284Z,95726.00
2023-06-11T04:18:39.210Z,95728.00
2023-06-11T04:19:39.238Z,95726.00
2023-06-11T04:20:38.299Z,95726.00
2023-06-11T04:21:39.325Z,95726.00
2023-06-11T04:22:39.340Z,95724.00
2023-06-11T04:23:39.412Z,95724.00
2023-06-11T04:24:39.424Z,95724.00
2023-06-11T04:25:39.482Z,95724.00
2023-06-11T04:26:39.467Z,95726.00
2023-06-11T04:27:39.515Z,95728.00
2023-06-11T04:28:39.599Z,95730.00
2023-06-11T04:29:38.598Z,95730.00
2023-06-11T04:30:39.619Z,95732.00
2023-06-11T04:31:38.679Z,95732.00
2023-06-11T04:32:38.742Z,95734.00
2023-06-11T04:33:39.735Z,95735.00
2023-06-11T04:34:39.800Z,95737.00
2023-06-11T04:35:38.863Z,95739.00
2023-06-11T04:36:39.821Z,95735.00
2023-06-11T04:37:38.852Z,95737.00
2023-06-11T04:38:39.862Z,95739.00
2023-06-11T04:39:39.905Z,95741.00
2023-06-11T04:40:39.973Z,95739.00
2023-06-11T04:41:39.985Z,95737.00
2023-06-11T04:42:40.102Z,95737.00
2023-06-11T04:43:40.077Z,95737.00
2023-06-11T04:44:40.085Z,95737.00
2023-06-11T04:45:40.133Z,95737.00
2023-06-11T04:46:39.278Z,95739.00
2023-06-11T04:47:39.255Z,95737.00
2023-06-11T04:48:40.227Z,95735.00
2023-06-11T04:49:40.265Z,95739.00
2023-06-11T04:50:40.412Z,95739.00
2023-06-11T04:51:40.352Z,95741.00
2023-06-11T04:52:39.372Z,95741.00
2023-06-11T04:53:39.424Z,95741.00
2023-06-11T04:54:39.532Z,95743.00
2023-06-11T04:55:40.495Z,95739.00
2023-06-11T04:56:40.541Z,95739.00
2023-06-11T04:57:40.569Z,95741.00
2023-06-11T04:58:39.634Z,95739.00
2023-06-11T04:59:40.717Z,95739.00
2023-06-11T05:00:40.733Z,95739.00
2023-06-11T05:01:40.743Z,95737.00
2023-06-11T05:02:40.858Z,95739.00
2023-06-11T05:03:40.854Z,95743.00
2023-06-11T05:04:39.849Z,95739.00
2023-06-11T05:05:40.958Z,95737.00
2023-06-11T05:06:40.998Z,95739.00
2023-06-11T05:07:39.997Z,95739.00
2023-06-11T05:08:41.078Z,95739.00
2023-06-11T05:09:43.128Z,95739.00
2023-06-11T05:10:40.084Z,95741.00
2023-06-11T05:11:41.138Z,95741.00
2023-06-11T05:12:40.097Z,95739.00
2023-06-11T05:13:41.069Z,95743.00
2023-06-11T05:14:40.065Z,95745.00
2023-06-11T05:15:41.050Z,95743.00
2023-06-11T05:16:41.146Z,95743.00
2023-06-11T05:17:41.159Z,95743.00
2023-06-11T05:18:41.019Z,95741.00
2023-06-11T05:19:41.006Z,95745.00
2023-06-11T05:20:41.026Z,95745.00
2023-06-11T05:21:41.056Z,95745.00
2023-06-11T05:22:41.005Z,95745.00
2023-06-11T05:23:39.983Z,95745.00
2023-06-11T05:24:40.997Z,95743.00
2023-06-11T05:25:40.976Z,95745.00
2023-06-11T05:26:40.009Z,95747.00
2023-06-11T05:27:40.969Z,95749.00
2023-06-11T05:28:41.036Z,95749.00
2023-06-11T05:29:43.428Z,95751.00
2023-06-11T05:30:40.953Z,95751.00
2023-06-11T05:31:40.993Z,95753.00
2023-06-11T05:32:39.962Z,95751.00
2023-06-11T05:33:39.931Z,95753.00
2023-06-11T05:34:40.923Z,95755.00
2023-06-11T05:35:39.944Z,95755.00
2023-06-11T05:36:40.933Z,95757.00
2023-06-11T05:37:39.902Z,95757.00
2023-06-11T05:38:40.979Z,95757.00
2023-06-11T05:39:40.989Z,95757.00
2023-06-11T05:40:41.029Z,95757.00
2023-06-11T05:41:41.095Z,95755.00
2023-06-11T05:42:40.130Z,95757.00
2023-06-11T05:43:41.171Z,95757.00
2023-06-11T05:44:41.257Z,95757.00
2023-06-11T05:45:41.309Z,95757.00
2023-06-11T05:46:40.404Z,95755.00
2023-06-11T05:47:41.498Z,95755.00
2023-06-11T05:48:41.473Z,95755.00
2023-06-11T05:49:41.502Z,95753.00
2023-06-11T05:50:40.570Z,95753.00
2023-06-11T05:51:41.558Z,95753.00
2023-06-11T05:52:41.610Z,95751.00
2023-06-11T05:53:40.693Z,95751.00
2023-06-11T05:54:41.680Z,95751.00
2023-06-11T05:55:41.720Z,95749.00
2023-06-11T05:56:41.888Z,95749.00
2023-06-11T05:57:41.830Z,95749.00
2023-06-11T05:58:41.871Z,95751.00
2023-06-11T05:59:41.912Z,95751.00
2023-06-11T06:00:42.059Z,95751.00
2023-06-11T06:01:40.996Z,95751.00
2023-06-11T06:02:42.089Z,95755.00
2023-06-11T06:03:41.329Z,95753.00
2023-06-11T06:04:42.153Z,95755.00
2023-06-11T06:05:42.222Z,95755.00
2023-06-11T06:06:42.194Z,95757.00
2023-06-11T06:07:42.237Z,95757.00
2023-06-11T06:08:43.155Z,95757.00
2023-06-11T06:09:42.280Z,95757.00
2023-06-11T06:10:41.301Z,95755.00
2023-06-11T06:11:41.279Z,95759.00
2023-06-11T06:12:42.309Z,95759.00
2023-06-11T06:13:42.263Z,95757.00
2023-06-11T06:14:42.269Z,95759.00
2023-06-11T06:15:42.246Z,95759.00
2023-06-11T06:16:42.308Z,95761.00
2023-06-11T06:17:42.250Z,95759.00
2023-06-11T06:18:42.246Z,95759.00
2023-06-11T06:19:41.203Z,95759.00
2023-06-11T06:20:42.194Z,95759.00
2023-06-11T06:21:42.301Z,95759.00
2023-06-11T06:22:42.275Z,95759.00
2023-06-11T06:23:41.232Z,95757.00
2023-06-11T06:24:41.191Z,95759.00
2023-06-11T06:25:42.154Z,95757.00
2023-06-11T06:26:42.290Z,95757.00
2023-06-11T06:27:41.144Z,95759.00
2023-06-11T06:28:42.173Z,95759.00
2023-06-11T06:29:41.155Z,95759.00
2023-06-11T06:30:42.119Z,95759.00
2023-06-11T06:31:41.183Z,95761.00
2023-06-11T06:32:41.251Z,95761.00
2023-06-11T06:33:42.116Z,95759.00
2023-06-11T06:34:41.122Z,95761.00
2023-06-11T06:35:42.090Z,95761.00
2023-06-11T06:36:42.129Z,95761.00
2023-06-11T06:37:41.184Z,95763.00
2023-06-11T06:38:42.230Z,95765.00
2023-06-11T06:39:42.321Z,95765.00
2023-06-11T06:40:42.366Z,95765.00
2023-06-11T06:41:42.398Z,95763.00
2023-06-11T06:42:42.474Z,95763.00
2023-06-11T06:43:41.472Z,95763.00
2023-06-11T06:44:41.530Z,95765.00
2023-06-11T06:45:41.553Z,95765.00
2023-06-11T06:46:42.599Z,95767.00
2023-06-11T06:47:42.752Z,95767.00
2023-06-11T06:48:42.802Z,95769.00
2023-06-11T06:49:42.723Z,95773.00
2023-06-11T06:50:41.800Z,95769.00
2023-06-11T06:51:42.826Z,95773.00
2023-06-11T06:52:41.855Z,95773.00
2023-06-11T06:53:42.913Z,95773.00
2023-06-11T06:54:42.973Z,95769.00
2023-06-11T06:55:42.045Z,95767.00
2023-06-11T06:56:43.038Z,95765.00
2023-06-11T06:57:43.063Z,95767.00
2023-06-11T06:58:43.102Z,95767.00
2023-06-11T06:59:43.218Z,95769.00
2023-06-11T07:00:43.204Z,95769.00
2023-06-11T07:01:43.368Z,95767.00
2023-06-11T07:02:43.334Z,95767.00
2023-06-11T07:03:43.332Z,95765.00
2023-06-11T07:04:43.400Z,95765.00
2023-06-11T07:05:42.492Z,95761.00
2023-06-11T07:06:43.508Z,95763.00
2023-06-11T07:07:43.901Z,95761.00
2023-06-11T07:08:43.573Z,95759.00
2023-06-11T07:09:43.664Z,95765.00
2023-06-11T07:10:43.687Z,95763.00
2023-06-11T07:11:43.750Z,95763.00
2023-06-11T07:12:43.815Z,95763.00
2023-06-11T07:13:43.817Z,95761.00
2023-06-11T07:14:43.882Z,95763.00
2023-06-11T07:15:43.943Z,95761.00
2023-06-11T07:16:43.962Z,95763.00
2023-06-11T07:17:44.057Z,95763.00
2023-06-11T07:18:44.063Z,95761.00
2023-06-11T07:19:44.112Z,95761.00
2023-06-11T07:20:43.143Z,95761.00
2023-06-11T07:21:44.168Z,95761.00
2023-06-11T07:22:44.188Z,95761.00
2023-06-11T07:23:44.265Z,95761.00
2023-06-11T07:24:43.274Z,95755.00
2023-06-11T07:25:44.300Z,95755.00
2023-06-11T07:26:44.309Z,95753.00
2023-06-11T07:27:44.382Z,95753.00
2023-06-11T07:28:44.412Z,95753.00
2023-06-11T07:29:44.450Z,95751.00
2023-06-11T07:30:44.486Z,95751.00
2023-06-11T07:31:44.545Z,95749.00
2023-06-11T07:32:44.557Z,95747.00
2023-06-11T07:33:44.574Z,95749.00
2023-06-11T07:34:44.635Z,95747.00
2023-06-11T07:35:44.702Z,95749.00
2023-06-11T07:36:44.749Z,95747.00
2023-06-11T07:37:43.716Z,95745.00
2023-06-11T07:38:44.731Z,95745.00
2023-06-11T07:39:44.761Z,95749.00
2023-06-11T07:40:43.768Z,95749.00
2023-06-11T07:41:43.796Z,95751.00
2023-06-11T07:42:44.811Z,95749.00
2023-06-11T07:43:44.831Z,95751.00
2023-06-11T07:44:44.902Z,95749.00
2023-06-11T07:45:44.919Z,95747.00
2023-06-11T07:46:44.966Z,95749.00
2023-06-11T07:47:44.935Z,95749.00
2023-06-11T07:48:44.966Z,95747.00
2023-06-11T07:49:44.968Z,95747.00
2023-06-11T07:50:45.271Z,95747.00
2023-06-11T07:51:45.051Z,95745.00
2023-06-11T07:52:44.053Z,95747.00
2023-06-11T07:53:44.052Z,95747.00
2023-06-11T07:54:45.097Z,95745.00
2023-06-11T07:55:44.131Z,95747.00
2023-06-11T07:56:44.117Z,95745.00
2023-06-11T07:57:44.226Z,95745.00
2023-06-11T07:58:45.162Z,95745.00
2023-06-11T07:59:45.204Z,95745.00
2023-06-11T08:00:45.208Z,95743.00
2023-06-11T08:01:45.267Z,95741.00
2023-06-11T08:02:45.397Z,95737.00
2023-06-11T08:03:44.285Z,95741.00
2023-06-11T08:04:45.269Z,95739.00
2023-06-11T08:05:45.338Z,95735.00
2023-06-11T08:06:44.354Z,95737.00
2023-06-11T08:07:45.313Z,95737.00
2023-06-11T08:08:45.293Z,95735.00
2023-06-11T08:09:45.317Z,95739.00
2023-06-11T08:10:44.344Z,95739.00
2023-06-11T08:11:45.347Z,95737.00
2023-06-11T08:12:45.365Z,95737.00
2023-06-11T08:13:45.374Z,95741.00
2023-06-11T08:14:45.361Z,95739.00
2023-06-11T08:15:44.401Z,95737.00
2023-06-11T08:16:44.420Z,95735.00
2023-06-11T08:17:45.455Z,95737.00
2023-06-11T08:18:45.411Z,95735.00
2023-06-11T08:19:45.460Z,95735.00
2023-06-11T08:20:45.475Z,95734.00
2023-06-11T08:21:45.434Z,95735.00
2023-06-11T08:22:45.535Z,95734.00
2023-06-11T08:23:45.493Z,95732.00
2023-06-11T08:24:44.480Z,95730.00
2023-06-11T08:25:45.460Z,95730.00
2023-06-11T08:26:45.492Z,95728.00
2023-06-11T08:27:45.482Z,95726.00
2023-06-11T08:28:44.533Z,95724.00
2023-06-11T08:29:45.524Z,95724.00
2023-06-11T08:30:44.499Z,95722.00
2023-06-11T08:31:44.568Z,95722.00
2023-06-11T08:32:45.552Z,95720.00
2023-06-11T08:33:45.554Z,95718.00
2023-06-11T08:34:45.572Z,95718.00
2023-06-11T08:35:45.603Z,95714.00
2023-06-11T08:36:45.696Z,95712.00
2023-06-11T08:37:45.675Z,95712.00
2023-06-11T08:38:44.651Z,95708.00
2023-06-11T08:39:44.795Z,95706.00
2023-06-11T08:40:45.701Z,95706.00
2023-06-11T08:41:45.728Z,95702.00
2023-06-11T08:42:45.719Z,95702.00
2023-06-11T08:43:45.733Z,95702.00
2023-06-11T08:44:45.756Z,95702.00
2023-06-11T08:45:44.771Z,95696.00
2023-06-11T08:46:45.902Z,95698.00
2023-06-11T08:47:45.829Z,95700.00
2023-06-11T08:48:45.819Z,95700.00
2023-06-11T08:49:45.895Z,95700.00
2023-06-11T08:50:45.878Z,95702.00
2023-06-11T08:51:44.888Z,95704.00
2023-06-11T08:52:45.900Z,95702.00
2023-06-11T08:53:45.946Z,95708.00
2023-06-11T08:54:44.948Z,95706.00
2023-06-11T08:55:45.015Z,95704.00
2023-06-11T08:56:46.019Z,95704.00
2023-06-11T08:57:45.053Z,95700.00
2023-06-11T08:58:46.103Z,95704.00
2023-06-11T08:59:46.069Z,95704.00
2023-06-11T09:00:48.709Z,95702.00
2023-06-11T09:01:46.172Z,95702.00
2023-06-11T09:02:46.139Z,95700.00
2023-06-11T09:03:46.079Z,95700.00
2023-06-11T09:04:46.064Z,95702.00
2023-06-11T09:05:45.053Z,95702.00
2023-06-11T09:06:46.157Z,95700.00
2023-06-11T09:07:46.045Z,95702.00
2023-06-11T09:08:46.051Z,95704.00
2023-06-11T09:09:46.023Z,95702.00
2023-06-11T09:10:46.029Z,95700.00
2023-06-11T09:11:46.030Z,95700.00
2023-06-11T09:12:46.028Z,95706.00
2023-06-11T09:13:45.008Z,95706.00
2023-06-11T09:14:45.004Z,95704.00
2023-06-11T09:15:44.999Z,95702.00
2023-06-11T09:16:46.160Z,95704.00
2023-06-11T09:17:45.986Z,95706.00
2023-06-11T09:18:45.960Z,95704.00
2023-06-11T09:19:45.963Z,95704.00
2023-06-11T09:20:45.979Z,95702.00
2023-06-11T09:21:45.955Z,95700.00
2023-06-11T09:22:45.977Z,95704.00
2023-06-11T09:23:45.918Z,95700.00
2023-06-11T09:24:45.929Z,95698.00
2023-06-11T09:25:44.937Z,95700.00
2023-06-11T09:26:45.945Z,95700.00
2023-06-11T09:27:45.921Z,95702.00
2023-06-11T09:28:48.540Z,95700.00
2023-06-11T09:29:45.898Z,95700.00
2023-06-11T09:30:45.867Z,95700.00
2023-06-11T09:31:45.926Z,95702.00
2023-06-11T09:32:45.976Z,95698.00
2023-06-11T09:33:45.983Z,95702.00
2023-06-11T09:34:45.988Z,95700.00
2023-06-11T09:35:46.060Z,95702.00
2023-06-11T09:36:46.070Z,95700.00
2023-06-11T09:37:45.131Z,95706.00
2023-06-11T09:38:46.170Z,95698.00
2023-06-11T09:39:46.225Z,95704.00
2023-06-11T09:40:45.286Z,95704.00
2023-06-11T09:41:46.318Z,95702.00
2023-06-11T09:42:46.411Z,95700.00
2023-06-11T09:43:46.412Z,95700.00
2023-06-11T09:44:46.427Z,95700.00
2023-06-11T09:45:46.512Z,95700.00
2023-06-11T09:46:46.553Z,95698.00
2023-06-11T09:47:45.636Z,95698.00
2023-06-11T09:48:46.651Z,95700.00
2023-06-11T09:49:45.644Z,95700.00
2023-06-11T09:50:45.826Z,95702.00
2023-06-11T09:51:46.782Z,95702.00
2023-06-11T09:52:46.839Z,95698.00
2023-06-11T09:53:46.871Z,95696.00
2023-06-11T09:54:45.896Z,95696.00
2023-06-11T09:55:57.188Z,95698.00
2023-06-11T09:56:46.957Z,95696.00
2023-06-11T09:57:46.952Z,95696.00
2023-06-11T09:58:46.955Z,95698.00
2023-06-11T09:59:46.959Z,95696.00
2023-06-11T10:00:46.977Z,95694.00
2023-06-11T10:01:46.039Z,95694.00
2023-06-11T10:02:46.122Z,95692.00
2023-06-11T10:03:45.915Z,95696.00
2023-06-11T10:04:46.876Z,95696.00
2023-06-11T10:05:46.904Z,95696.00
2023-06-11T10:06:46.917Z,95698.00
2023-06-11T10:07:46.953Z,95696.00
2023-06-11T10:08:46.888Z,95696.00
2023-06-11T10:09:46.861Z,95698.00
2023-06-11T10:10:46.858Z,95698.00
2023-06-11T10:11:46.939Z,95698.00
2023-06-11T10:12:46.847Z,95698.00
2023-06-11T10:13:46.846Z,95696.00
2023-06-11T10:14:46.832Z,95696.00
2023-06-11T10:15:46.873Z,95696.00
2023-06-11T10:16:45.809Z,95692.00
2023-06-11T10:17:46.813Z,95692.00
2023-06-11T10:18:46.801Z,95692.00
2023-06-11T10:19:46.789Z,95687.00
2023-06-11T10:20:46.870Z,95687.00
2023-06-11T10:21:49.967Z,95688.00
2023-06-11T10:22:46.883Z,95688.00
2023-06-11T10:23:46.772Z,95692.00
2023-06-11T10:24:46.743Z,95687.00
2023-06-11T10:25:46.749Z,95692.00
2023-06-11T10:26:45.836Z,95690.00
2023-06-11T10:27:46.767Z,95688.00
2023-06-11T10:28:46.726Z,95690.00
2023-06-11T10:29:46.730Z,95688.00
2023-06-11T10:30:46.723Z,95688.00
2023-06-11T10:31:46.736Z,95687.00
2023-06-11T10:32:45.722Z,95688.00
2023-06-11T10:33:45.750Z,95687.00
2023-06-11T10:34:45.751Z,95687.00
2023-06-11T10:35:46.695Z,95688.00
2023-06-11T10:36:46.699Z,95688.00
2023-06-11T10:37:46.700Z,95687.00
2023-06-11T10:38:46.669Z,95687.00
2023-06-11T10:39:46.650Z,95687.00
2023-06-11T10:40:46.712Z,95685.00
2023-06-11T10:41:46.704Z,95681.00
2023-06-11T10:42:46.645Z,95679.00
2023-06-11T10:43:46.641Z,95677.00
2023-06-11T10:44:46.679Z,95677.00
2023-06-11T10:45:49.728Z,95677.00
2023-06-11T10:46:46.675Z,95673.00
2023-06-11T10:47:46.704Z,95677.00
2023-06-11T10:48:46.611Z,95671.00
2023-06-11T10:49:46.586Z,95675.00
2023-06-11T10:50:45.577Z,95671.00
2023-06-11T10:51:45.579Z,95669.00
2023-06-11T10:52:45.651Z,95673.00
2023-06-11T10:53:46.552Z,95671.00
2023-06-11T10:54:45.553Z,95673.00
2023-06-11T10:55:46.524Z,95673.00
2023-06-11T10:56:46.555Z,95669.00
2023-06-11T10:57:45.533Z,95669.00
2023-06-11T10:58:46.643Z,95669.00
2023-06-11T10:59:46.510Z,95667.00
2023-06-11T11:00:46.510Z,95669.00
2023-06-11T11:01:46.615Z,95665.00
2023-06-11T11:02:46.647Z,95667.00
2023-06-11T11:03:46.640Z,95663.00
2023-06-11T11:04:45.491Z,95665.00
2023-06-11T11:05:45.512Z,95661.00
2023-06-11T11:06:46.500Z,95661.00
2023-06-11T11:07:46.564Z,95661.00
2023-06-11T11:08:46.630Z,95659.00
2023-06-11T11:09:46.668Z,95659.00
2023-06-11T11:10:46.709Z,95649.00
2023-06-11T11:11:45.778Z,95649.00
2023-06-11T11:12:46.789Z,95657.00
2023-06-11T11:13:47.471Z,95649.00
2023-06-11T11:14:46.894Z,95647.00
2023-06-11T11:15:45.926Z,95649.00
2023-06-11T11:16:46.991Z,95659.00
2023-06-11T11:17:46.128Z,95657.00
2023-06-11T11:18:47.096Z,95657.00
2023-06-11T11:19:47.136Z,95649.00
2023-06-11T11:20:46.170Z,95663.00
2023-06-11T11:21:47.201Z,95661.00
2023-06-11T11:22:46.246Z,95661.00
2023-06-11T11:23:46.383Z,95663.00
2023-06-11T11:24:47.404Z,95661.00
2023-06-11T11:25:46.397Z,95659.00
2023-06-11T11:26:47.435Z,95659.00
2023-06-11T11:27:47.494Z,95659.00
2023-06-11T11:28:47.541Z,95657.00
2023-06-11T11:29:46.577Z,95657.00
2023-06-11T11:30:47.627Z,95657.00
2023-06-11T11:31:47.735Z,95647.00
2023-06-11T11:32:47.851Z,95647.00
2023-06-11T11:33:47.766Z,95645.00
2023-06-11T11:34:47.803Z,95643.00
2023-06-11T11:35:47.871Z,95645.00
2023-06-11T11:36:47.888Z,95647.00
2023-06-11T11:37:47.920Z,95645.00
2023-06-11T11:38:47.954Z,95643.00
2023-06-11T11:39:47.994Z,95647.00
2023-06-11T11:40:48.035Z,95647.00
2023-06-11T11:41:48.142Z,95641.00
2023-06-11T11:42:48.176Z,95645.00
2023-06-11T11:43:48.181Z,95643.00
2023-06-11T11:44:47.228Z,95639.00